createdAt,value
2023-03-29T00:01:34.884Z,6.20
2023-03-29T00:04:18.257Z,6.22
2023-03-29T00:06:57.497Z,6.90
2023-03-29T00:09:37.113Z,6.85
2023-03-29T00:12:17.147Z,6.79
2023-03-29T00:14:56.533Z,6.64
2023-03-29T00:17:41.060Z,6.63
2023-03-29T00:20:20.557Z,7.30
2023-03-29T00:22:59.854Z,6.78
2023-03-29T00:25:39.097Z,6.88
2023-03-29T00:28:18.452Z,6.83
2023-03-29T00:30:58.126Z,7.52
2023-03-29T00:33:43.527Z,7.45
2023-03-29T00:36:23.385Z,7.64
2023-03-29T00:39:03.801Z,7.24
2023-03-29T00:41:43.161Z,6.83
2023-03-29T00:45:03.100Z,7.48
2023-03-29T00:47:47.835Z,7.62
2023-03-29T00:50:39.378Z,7.09
2023-03-29T00:53:25.145Z,7.02
2023-03-29T00:56:11.605Z,6.58
2023-03-29T00:58:58.553Z,6.75
2023-03-29T01:01:47.458Z,7.11
2023-03-29T01:04:33.906Z,6.59
2023-03-29T01:07:23.707Z,6.64
2023-03-29T01:10:11.236Z,6.69
2023-03-29T01:12:56.061Z,6.69
2023-03-29T01:15:36.679Z,7.11
2023-03-29T01:18:17.146Z,6.93
2023-03-29T01:21:24.644Z,7.02
2023-03-29T01:24:27.965Z,7.48
2023-03-29T01:27:16.757Z,7.17
2023-03-29T01:30:08.799Z,7.16
2023-03-29T01:32:55.019Z,7.32
2023-03-29T01:35:47.416Z,7.15
2023-03-29T01:38:33.350Z,7.19
2023-03-29T01:41:13.589Z,7.04
2023-03-29T01:44:03.103Z,6.85
2023-03-29T01:46:54.313Z,7.11
2023-03-29T01:49:41.223Z,6.89
2023-03-29T01:52:27.950Z,6.64
2023-03-29T01:55:13.465Z,6.53
2023-03-29T01:57:56.395Z,6.91
2023-03-29T02:00:38.039Z,6.90
2023-03-29T02:03:26.377Z,7.09
2023-03-29T02:06:08.664Z,7.10
2023-03-29T02:08:51.136Z,7.08
2023-03-29T02:11:33.366Z,6.14
2023-03-29T02:14:12.704Z,6.50
2023-03-29T02:16:52.130Z,6.18
2023-03-29T02:19:36.750Z,6.34
2023-03-29T02:22:17.784Z,7.08
2023-03-29T02:25:04.836Z,6.53
2023-03-29T02:27:44.281Z,6.38
2023-03-29T02:30:27.144Z,6.75
2023-03-29T02:33:15.238Z,6.65
2023-03-29T02:36:06.142Z,6.75
2023-03-29T02:38:46.368Z,7.04
2023-03-29T02:41:25.849Z,6.91
2023-03-29T02:44:09.575Z,6.77
2023-03-29T02:46:50.116Z,7.73
2023-03-29T02:49:30.838Z,6.16
2023-03-29T02:52:22.218Z,6.37
2023-03-29T02:55:04.312Z,6.28
2023-03-29T02:57:44.718Z,6.65
2023-03-29T03:00:26.087Z,7.32
2023-03-29T03:03:05.626Z,7.28
2023-03-29T03:05:46.155Z,6.64
2023-03-29T03:08:31.070Z,6.31
2023-03-29T03:11:10.539Z,6.34
2023-03-29T03:13:49.914Z,6.14
2023-03-29T03:16:29.620Z,6.75
2023-03-29T03:19:09.185Z,6.34
2023-03-29T03:21:48.742Z,6.56
2023-03-29T03:24:34.138Z,6.85
2023-03-29T03:27:13.745Z,6.85
2023-03-29T03:29:53.062Z,6.69
2023-03-29T03:32:32.984Z,6.42
2023-03-29T03:35:14.024Z,10.38
2023-03-29T03:37:53.346Z,8.21
2023-03-29T03:40:37.809Z,6.25
2023-03-29T03:43:17.316Z,5.60
2023-03-29T03:45:56.866Z,5.75
2023-03-29T03:48:36.243Z,5.80
2023-03-29T03:51:15.725Z,5.66
2023-03-29T03:53:55.101Z,5.77
2023-03-29T03:56:39.507Z,5.88
2023-03-29T03:59:19.047Z,6.10
2023-03-29T04:01:59.493Z,5.43
2023-03-29T04:04:39.035Z,5.64
2023-03-29T04:07:19.104Z,5.70
2023-03-29T04:09:58.438Z,5.85
2023-03-29T04:12:42.878Z,5.73
2023-03-29T04:15:22.922Z,5.89
2023-03-29T04:18:03.708Z,5.94
2023-03-29T04:20:43.300Z,5.66
2023-03-29T04:23:23.222Z,5.95
2023-03-29T04:26:02.791Z,5.64
2023-03-29T04:28:47.778Z,5.63
2023-03-29T04:31:27.420Z,5.91
2023-03-29T04:34:07.027Z,6.06
2023-03-29T04:36:46.451Z,6.04
2023-03-29T04:39:35.128Z,5.66
2023-03-29T04:42:15.290Z,6.01
2023-03-29T04:44:59.797Z,6.32
2023-03-29T04:47:41.116Z,6.79
2023-03-29T04:50:21.343Z,6.60
2023-03-29T04:53:01.564Z,6.97
2023-03-29T04:55:40.986Z,6.24
2023-03-29T04:58:22.978Z,6.10
2023-03-29T05:01:08.871Z,6.09
2023-03-29T05:03:48.254Z,6.79
2023-03-29T05:06:27.629Z,6.36
2023-03-29T05:09:08.343Z,6.16
2023-03-29T05:11:47.697Z,6.27
2023-03-29T05:14:27.095Z,6.30
2023-03-29T05:17:11.555Z,6.24
2023-03-29T05:19:50.917Z,5.80
2023-03-29T05:22:31.001Z,6.17
2023-03-29T05:25:10.411Z,5.94
2023-03-29T05:27:49.791Z,5.62
2023-03-29T05:30:29.333Z,5.79
2023-03-29T05:33:14.844Z,6.09
2023-03-29T05:35:54.240Z,6.10
2023-03-29T05:38:34.022Z,6.06
2023-03-29T05:41:14.224Z,6.23
2023-03-29T05:43:53.538Z,6.72
2023-03-29T05:46:33.006Z,7.30
2023-03-29T05:49:17.710Z,5.12
2023-03-29T05:51:58.114Z,6.84
2023-03-29T05:54:37.593Z,9.10
2023-03-29T05:57:17.028Z,12.36
2023-03-29T05:59:57.549Z,13.80
2023-03-29T06:02:38.006Z,11.62
2023-03-29T06:05:22.604Z,11.01
2023-03-29T06:08:02.010Z,10.42
2023-03-29T06:10:41.423Z,9.75
2023-03-29T06:13:20.777Z,9.61
2023-03-29T06:16:00.765Z,9.28
2023-03-29T06:18:41.390Z,9.32
2023-03-29T06:21:27.807Z,8.26
2023-03-29T06:24:08.028Z,8.92
2023-03-29T06:26:47.686Z,8.26
2023-03-29T06:29:27.179Z,6.89
2023-03-29T06:32:06.652Z,37.01
2023-03-29T06:34:45.999Z,29.40
2023-03-29T06:37:30.532Z,12.23
2023-03-29T06:40:11.312Z,7.83
2023-03-29T06:42:52.196Z,7.11
2023-03-29T06:45:31.996Z,7.85
2023-03-29T06:48:13.499Z,7.25
2023-03-29T06:50:53.505Z,6.48
2023-03-29T06:53:37.968Z,13.28
2023-03-29T06:56:18.831Z,14.53
2023-03-29T06:58:58.221Z,10.25
2023-03-29T07:01:38.616Z,20.95
2023-03-29T07:04:18.822Z,15.94
2023-03-29T07:07:02.619Z,6.45
2023-03-29T07:09:47.714Z,13.19
2023-03-29T07:12:28.354Z,6.34
2023-03-29T07:15:07.910Z,8.46
2023-03-29T07:17:47.324Z,6.53
2023-03-29T07:20:28.336Z,6.66
2023-03-29T07:23:09.256Z,5.34
2023-03-29T07:25:53.802Z,6.17
2023-03-29T07:28:33.237Z,6.61
2023-03-29T07:31:16.973Z,6.34
2023-03-29T07:33:57.285Z,6.96
2023-03-29T07:36:38.186Z,6.31
2023-03-29T07:39:18.918Z,6.49
2023-03-29T07:42:04.770Z,6.59
2023-03-29T07:44:44.073Z,6.26
2023-03-29T07:47:23.497Z,5.78
2023-03-29T07:50:02.817Z,5.58
2023-03-29T07:52:44.749Z,5.46
2023-03-29T07:55:24.176Z,5.48
2023-03-29T07:58:08.705Z,5.16
2023-03-29T08:00:50.345Z,5.09
2023-03-29T08:03:30.060Z,4.86
2023-03-29T08:06:09.919Z,4.92
2023-03-29T08:08:49.356Z,5.28
2023-03-29T08:11:28.756Z,6.27
2023-03-29T08:14:15.903Z,5.66
2023-03-29T08:16:55.280Z,5.09
2023-03-29T08:19:35.081Z,4.98
2023-03-29T08:22:14.514Z,8.34
2023-03-29T08:24:54.259Z,12.65
2023-03-29T08:27:33.722Z,13.50
2023-03-29T08:30:19.394Z,8.86
2023-03-29T08:32:59.278Z,9.97
2023-03-29T08:35:38.876Z,10.44
2023-03-29T08:38:18.870Z,7.84
2023-03-29T08:40:58.309Z,7.89
2023-03-29T08:43:58.130Z,7.84
2023-03-29T08:46:54.333Z,7.40
2023-03-29T08:49:35.270Z,7.12
2023-03-29T08:52:28.422Z,6.89
2023-03-29T08:55:13.486Z,7.08
2023-03-29T08:57:57.750Z,6.63
2023-03-29T09:00:46.513Z,7.17
2023-03-29T09:03:36.894Z,6.09
2023-03-29T09:06:20.055Z,5.30
2023-03-29T09:09:01.140Z,4.95
2023-03-29T09:11:58.403Z,5.11
2023-03-29T09:14:56.049Z,4.70
2023-03-29T09:17:50.240Z,4.59
2023-03-29T09:20:44.823Z,4.68
2023-03-29T09:23:41.995Z,5.89
2023-03-29T09:26:32.869Z,6.34
2023-03-29T09:29:30.166Z,6.33
2023-03-29T09:32:15.656Z,5.95
2023-03-29T09:35:06.118Z,6.08
2023-03-29T09:37:50.503Z,5.40
2023-03-29T09:40:34.751Z,4.89
2023-03-29T09:43:20.170Z,5.23
2023-03-29T09:46:06.063Z,6.22
2023-03-29T09:48:50.922Z,3.49
2023-03-29T09:51:35.224Z,3.19
2023-03-29T09:54:19.959Z,3.19
2023-03-29T09:56:59.542Z,3.04
2023-03-29T09:59:39.266Z,4.07
2023-03-29T10:02:21.363Z,5.77
2023-03-29T10:05:05.155Z,3.38
2023-03-29T10:07:49.568Z,4.66
2023-03-29T10:10:38.025Z,2.85
2023-03-29T10:13:24.929Z,3.17
2023-03-29T10:16:08.866Z,3.77
2023-03-29T10:18:51.442Z,2.93
2023-03-29T10:21:30.853Z,2.95
2023-03-29T10:24:10.220Z,3.24
2023-03-29T10:26:56.837Z,2.74
2023-03-29T10:29:44.570Z,2.66
2023-03-29T10:32:31.953Z,2.94
2023-03-29T10:35:17.605Z,3.32
2023-03-29T10:37:59.584Z,3.11
2023-03-29T10:40:41.367Z,2.97
2023-03-29T10:43:30.810Z,2.60
2023-03-29T10:46:15.645Z,2.44
2023-03-29T10:48:56.857Z,2.68
2023-03-29T10:51:36.868Z,3.14
2023-03-29T10:54:23.216Z,2.52
2023-03-29T10:57:05.501Z,2.50
2023-03-29T11:00:00.138Z,9.18
2023-03-29T11:03:02.382Z,6.93
2023-03-29T11:05:51.566Z,28.34
2023-03-29T11:08:56.202Z,12.91
2023-03-29T11:12:16.437Z,2.89
2023-03-29T11:15:19.148Z,2.54
2023-03-29T11:18:13.222Z,2.38
2023-03-29T11:21:03.481Z,2.45
2023-03-29T11:23:57.149Z,2.76
2023-03-29T11:26:49.743Z,2.45
2023-03-29T11:29:37.980Z,2.64
2023-03-29T11:32:30.954Z,2.45
2023-03-29T11:35:28.413Z,2.37
2023-03-29T11:38:19.289Z,2.47
2023-03-29T11:41:06.684Z,2.43
2023-03-29T11:43:54.895Z,2.22
2023-03-29T11:46:40.334Z,2.55
2023-03-29T11:49:30.583Z,2.50
2023-03-29T11:52:20.532Z,2.56
2023-03-29T11:55:05.994Z,2.32
2023-03-29T11:57:50.809Z,2.39
2023-03-29T12:00:37.707Z,2.27
2023-03-29T12:03:24.671Z,2.29
2023-03-29T12:06:15.275Z,2.92
2023-03-29T12:09:03.457Z,2.77
2023-03-29T12:11:51.332Z,3.02
2023-03-29T12:14:36.536Z,2.25
2023-03-29T12:17:22.546Z,2.71
2023-03-29T12:20:12.208Z,2.80
2023-03-29T12:22:57.989Z,2.12
2023-03-29T12:25:48.906Z,2.11
2023-03-29T12:28:50.527Z,2.05
2023-03-29T12:31:41.270Z,2.53
2023-03-29T12:34:43.067Z,2.87
2023-03-29T12:37:39.948Z,2.17
2023-03-29T12:40:28.747Z,1.89
2023-03-29T12:43:14.325Z,2.12
2023-03-29T12:45:55.100Z,2.14
2023-03-29T12:48:38.412Z,2.18
2023-03-29T12:51:22.888Z,2.51
2023-03-29T12:54:13.994Z,2.25
2023-03-29T12:57:09.202Z,2.20
2023-03-29T12:59:53.587Z,2.28
2023-03-29T13:02:43.348Z,2.03
2023-03-29T13:05:40.527Z,2.25
2023-03-29T13:08:33.802Z,2.08
2023-03-29T13:11:18.792Z,2.13
2023-03-29T13:14:04.387Z,2.81
2023-03-29T13:16:43.908Z,2.28
2023-03-29T13:19:41.886Z,2.53
2023-03-29T13:22:33.976Z,2.34
2023-03-29T13:25:28.554Z,2.77
2023-03-29T13:28:18.797Z,2.36
2023-03-29T13:31:09.346Z,2.23
2023-03-29T13:34:09.238Z,3.26
2023-03-29T13:37:02.719Z,3.45
2023-03-29T13:39:44.083Z,3.10
2023-03-29T13:42:31.357Z,5.49
2023-03-29T13:45:22.786Z,3.77
2023-03-29T13:48:32.932Z,3.30
2023-03-29T13:51:35.179Z,3.47
2023-03-29T13:54:27.876Z,3.75
2023-03-29T13:57:16.244Z,4.14
2023-03-29T14:00:08.352Z,4.62
2023-03-29T14:02:53.045Z,4.33
2023-03-29T14:05:41.501Z,3.51
2023-03-29T14:08:28.127Z,3.50
2023-03-29T14:11:11.784Z,3.11
2023-03-29T14:13:51.252Z,3.09
2023-03-29T14:16:34.700Z,3.14
2023-03-29T14:19:22.770Z,3.13
2023-03-29T14:22:08.734Z,3.01
2023-03-29T14:24:54.758Z,2.94
2023-03-29T14:27:38.455Z,2.92
2023-03-29T14:30:34.072Z,2.75
2023-03-29T14:33:13.645Z,2.63
2023-03-29T14:35:53.247Z,3.10
2023-03-29T14:38:39.845Z,2.92
2023-03-29T14:41:19.974Z,2.96
2023-03-29T14:44:00.643Z,2.90
2023-03-29T14:46:41.613Z,3.10
2023-03-29T14:49:24.621Z,2.89
2023-03-29T14:52:05.245Z,3.98
2023-03-29T14:54:54.448Z,3.14
2023-03-29T14:57:40.663Z,3.14
2023-03-29T15:00:36.229Z,3.30
2023-03-29T15:03:25.683Z,2.57
2023-03-29T15:06:09.342Z,2.97
2023-03-29T15:09:03.758Z,2.82
2023-03-29T15:11:59.929Z,3.42
2023-03-29T15:14:43.267Z,3.47
2023-03-29T15:17:51.090Z,2.86
2023-03-29T15:20:35.514Z,2.81
2023-03-29T15:23:30.103Z,3.65
2023-03-29T15:26:16.293Z,2.73
2023-03-29T15:29:09.293Z,2.66
2023-03-29T15:31:49.457Z,2.95
2023-03-29T15:34:34.154Z,2.54
2023-03-29T15:37:13.861Z,2.98
2023-03-29T15:39:53.308Z,3.61
2023-03-29T15:42:33.520Z,2.79
2023-03-29T15:45:23.401Z,2.99
2023-03-29T15:48:05.917Z,2.77
2023-03-29T15:50:45.302Z,3.32
2023-03-29T15:53:25.258Z,2.96
2023-03-29T15:56:08.458Z,3.40
2023-03-29T15:58:47.923Z,4.18
2023-03-29T16:01:40.241Z,4.45
2023-03-29T16:04:22.362Z,2.87
2023-03-29T16:07:02.593Z,2.81
2023-03-29T16:09:42.112Z,3.02
2023-03-29T16:12:21.766Z,3.07
2023-03-29T16:15:01.115Z,3.10
2023-03-29T16:17:45.608Z,3.05
2023-03-29T16:20:25.764Z,3.12
2023-03-29T16:23:09.956Z,3.01
2023-03-29T16:25:49.430Z,3.24
2023-03-29T16:28:29.430Z,3.34
2023-03-29T16:31:08.840Z,3.20
2023-03-29T16:33:53.708Z,3.35
2023-03-29T16:36:34.328Z,3.39
2023-03-29T16:39:14.346Z,3.62
2023-03-29T16:41:53.780Z,3.65
2023-03-29T16:44:33.094Z,3.24
2023-03-29T16:47:13.314Z,3.15
2023-03-29T16:49:57.713Z,3.53
2023-03-29T16:52:39.087Z,3.49
2023-03-29T16:55:20.428Z,3.36
2023-03-29T16:57:59.921Z,3.32
2023-03-29T17:00:39.590Z,3.41
2023-03-29T17:03:19.328Z,3.14
2023-03-29T17:06:04.017Z,3.64
2023-03-29T17:08:44.701Z,3.61
2023-03-29T17:11:24.357Z,3.52
2023-03-29T17:14:04.474Z,3.72
2023-03-29T17:16:43.879Z,3.40
2023-03-29T17:19:23.267Z,3.36
2023-03-29T17:22:07.711Z,3.30
2023-03-29T17:24:47.124Z,3.33
2023-03-29T17:27:26.669Z,3.31
2023-03-29T17:30:06.054Z,3.48
2023-03-29T17:32:46.792Z,3.25
2023-03-29T17:35:26.164Z,3.14
2023-03-29T17:38:10.601Z,3.44
2023-03-29T17:40:50.097Z,3.44
2023-03-29T17:43:30.255Z,3.22
2023-03-29T17:46:09.659Z,3.28
2023-03-29T17:48:48.959Z,4.14
2023-03-29T17:51:28.447Z,3.62
2023-03-29T17:54:13.347Z,3.38
2023-03-29T17:56:52.781Z,3.14
2023-03-29T17:59:32.388Z,3.01
2023-03-29T18:02:11.801Z,3.05
2023-03-29T18:04:51.168Z,3.52
2023-03-29T18:07:30.509Z,5.47
2023-03-29T18:10:15.677Z,8.65
2023-03-29T18:12:55.026Z,7.06
2023-03-29T18:15:34.374Z,7.03
2023-03-29T18:18:13.835Z,4.95
2023-03-29T18:20:53.145Z,4.25
2023-03-29T18:23:34.390Z,4.83
2023-03-29T18:26:18.842Z,4.71
2023-03-29T18:28:58.182Z,6.25
2023-03-29T18:31:37.614Z,6.30
2023-03-29T18:34:17.225Z,12.18
2023-03-29T18:36:57.061Z,15.76
2023-03-29T18:39:36.978Z,15.28
2023-03-29T18:42:23.030Z,13.23
2023-03-29T18:45:02.422Z,6.79
2023-03-29T18:47:42.221Z,5.49
2023-03-29T18:50:21.649Z,9.82
2023-03-29T18:53:01.061Z,6.10
2023-03-29T18:55:40.731Z,4.73
2023-03-29T18:58:25.283Z,4.80
2023-03-29T19:01:08.980Z,4.75
2023-03-29T19:03:49.289Z,4.69
2023-03-29T19:06:29.147Z,5.30
2023-03-29T19:09:09.024Z,4.66
2023-03-29T19:11:49.083Z,4.47
2023-03-29T19:14:33.468Z,4.52
2023-03-29T19:17:12.762Z,4.09
2023-03-29T19:19:52.061Z,3.75
2023-03-29T19:22:31.849Z,3.11
2023-03-29T19:25:12.436Z,2.91
2023-03-29T19:27:51.968Z,8.38
2023-03-29T19:30:37.237Z,12.80
2023-03-29T19:33:16.963Z,14.70
2023-03-29T19:35:58.108Z,22.42
2023-03-29T19:38:37.516Z,14.88
2023-03-29T19:41:17.327Z,6.82
2023-03-29T19:43:56.652Z,7.16
2023-03-29T19:46:42.834Z,5.51
2023-03-29T19:49:22.161Z,5.84
2023-03-29T19:52:02.531Z,4.61
2023-03-29T19:54:41.848Z,5.19
2023-03-29T19:57:21.257Z,7.03
2023-03-29T20:00:00.622Z,6.14
2023-03-29T20:02:45.278Z,4.85
2023-03-29T20:05:25.243Z,4.07
2023-03-29T20:08:04.701Z,4.25
2023-03-29T20:10:44.357Z,4.44
2023-03-29T20:13:37.497Z,4.83
2023-03-29T20:16:20.934Z,5.26
2023-03-29T20:19:05.384Z,7.53
2023-03-29T20:21:44.753Z,5.42
2023-03-29T20:24:24.775Z,6.01
2023-03-29T20:27:05.722Z,5.77
2023-03-29T20:29:45.095Z,6.07
2023-03-29T20:32:24.475Z,5.75
2023-03-29T20:35:08.904Z,6.44
2023-03-29T20:37:48.556Z,6.64
2023-03-29T20:40:29.973Z,6.65
2023-03-29T20:43:14.276Z,6.39
2023-03-29T20:45:54.834Z,6.13
2023-03-29T20:48:39.431Z,5.98
2023-03-29T20:51:23.844Z,5.50
2023-03-29T20:54:05.727Z,4.86
2023-03-29T20:56:46.799Z,4.50
2023-03-29T20:59:26.182Z,4.47
2023-03-29T21:02:06.302Z,4.77
2023-03-29T21:04:46.000Z,4.06
2023-03-29T21:07:31.420Z,4.02
2023-03-29T21:10:12.606Z,4.60
2023-03-29T21:12:51.921Z,4.13
2023-03-29T21:15:31.956Z,4.18
2023-03-29T21:18:11.513Z,4.95
2023-03-29T21:20:51.912Z,7.83
2023-03-29T21:23:36.313Z,5.40
2023-03-29T21:29:00.158Z,4.56
2023-03-29T21:31:39.454Z,4.22
2023-03-29T21:34:18.811Z,4.79
2023-03-29T21:36:58.166Z,6.06
2023-03-29T21:39:42.616Z,6.17
2023-03-29T21:42:21.922Z,5.77
2023-03-29T21:45:01.293Z,6.78
2023-03-29T21:47:40.667Z,6.67
2023-03-29T21:50:20.073Z,5.82
2023-03-29T21:52:59.405Z,6.51
2023-03-29T21:55:45.508Z,6.58
2023-03-29T21:58:25.298Z,5.83
2023-03-29T22:01:06.355Z,6.55
2023-03-29T22:03:46.012Z,6.51
2023-03-29T22:06:25.317Z,6.27
2023-03-29T22:09:04.766Z,6.90
2023-03-29T22:11:49.812Z,6.10
2023-03-29T22:14:29.691Z,6.10
2023-03-29T22:17:09.146Z,5.85
2023-03-29T22:19:48.697Z,5.06
2023-03-29T22:22:28.009Z,6.06
2023-03-29T22:25:07.824Z,6.29
2023-03-29T22:27:53.503Z,5.84
2023-03-29T22:30:32.937Z,6.00
2023-03-29T22:33:12.481Z,6.43
2023-03-29T22:35:51.947Z,6.38
2023-03-29T22:38:31.315Z,5.81
2023-03-29T22:41:12.356Z,6.51
2023-03-29T22:43:58.625Z,6.68
2023-03-29T22:46:38.370Z,6.31
2023-03-29T22:49:17.853Z,6.65
2023-03-29T22:51:57.307Z,6.48
2023-03-29T22:54:36.794Z,5.84
2023-03-29T22:57:16.208Z,6.04
2023-03-29T23:00:00.622Z,5.69
2023-03-29T23:02:39.973Z,5.85
2023-03-29T23:05:19.806Z,6.22
2023-03-29T23:07:59.184Z,6.06
2023-03-29T23:10:38.477Z,5.69
2023-03-29T23:13:21.805Z,5.64
2023-03-29T23:16:08.154Z,5.59
2023-03-29T23:18:47.785Z,5.97
2023-03-29T23:21:27.465Z,6.27
2023-03-29T23:24:07.774Z,6.20
2023-03-29T23:26:47.068Z,5.98
2023-03-29T23:29:27.477Z,6.16
2023-03-29T23:32:11.879Z,6.37
2023-03-29T23:34:51.347Z,6.31
2023-03-29T23:37:30.668Z,5.82
2023-03-29T23:40:11.219Z,6.20
2023-03-29T23:42:52.791Z,5.58
2023-03-29T23:45:34.448Z,5.42
2023-03-29T23:48:21.360Z,5.49
2023-03-29T23:51:01.078Z,5.79
2023-03-29T23:53:40.617Z,5.23
2023-03-29T23:56:19.960Z,5.61
2023-03-29T23:58:59.485Z,5.38
